sensor_id;sensor_type;location;lat;lon;timestamp;pressure;altitude;pressure_sealevel;temperature;humidity
61359;BME280;47228;46.762;23.598;2022-12-08T00:01:58;97148.73;;;-1.55;88.76
61359;BME280;47228;46.762;23.598;2022-12-08T00:04:26;97145.86;;;-1.58;88.56
61359;BME280;47228;46.762;23.598;2022-12-08T00:06:53;97146.20;;;-1.61;88.56
61359;BME280;47228;46.762;23.598;2022-12-08T00:09:40;97141.73;;;-1.66;88.53
61359;BME280;47228;46.762;23.598;2022-12-08T00:12:12;97140.17;;;-1.70;88.46
61359;BME280;47228;46.762;23.598;2022-12-08T00:14:45;97144.31;;;-1.74;88.67
61359;BME280;47228;46.762;23.598;2022-12-08T00:17:14;97146.98;;;-1.77;88.92
61359;BME280;47228;46.762;23.598;2022-12-08T00:19:42;97147.70;;;-1.79;88.91
61359;BME280;47228;46.762;23.598;2022-12-08T00:22:11;97149.73;;;-1.83;88.62
61359;BME280;47228;46.762;23.598;2022-12-08T00:24:39;97154.20;;;-1.87;88.74
61359;BME280;47228;46.762;23.598;2022-12-08T00:27:08;97153.94;;;-1.90;88.96
61359;BME280;47228;46.762;23.598;2022-12-08T00:29:37;97156.84;;;-1.89;89.28
61359;BME280;47228;46.762;23.598;2022-12-08T00:32:05;97163.11;;;-1.87;89.35
61359;BME280;47228;46.762;23.598;2022-12-08T00:34:33;97164.24;;;-1.84;89.56
61359;BME280;47228;46.762;23.598;2022-12-08T00:37:01;97167.10;;;-1.79;89.66
61359;BME280;47228;46.762;23.598;2022-12-08T00:39:28;97165.96;;;-1.76;89.44
61359;BME280;47228;46.762;23.598;2022-12-08T00:41:56;97170.19;;;-1.74;89.11
61359;BME280;47228;46.762;23.598;2022-12-08T00:44:41;97171.26;;;-1.73;89.00
61359;BME280;47228;46.762;23.598;2022-12-08T00:47:09;97174.23;;;-1.77;88.42
61359;BME280;47228;46.762;23.598;2022-12-08T00:49:38;97181.64;;;-1.80;88.31
61359;BME280;47228;46.762;23.598;2022-12-08T00:52:06;97185.58;;;-1.82;88.59
61359;BME280;47228;46.762;23.598;2022-12-08T00:54:34;97184.95;;;-1.87;88.14
61359;BME280;47228;46.762;23.598;2022-12-08T00:57:01;97185.92;;;-1.90;88.51
61359;BME280;47228;46.762;23.598;2022-12-08T00:59:29;97184.65;;;-1.91;88.79
61359;BME280;47228;46.762;23.598;2022-12-08T01:01:57;97182.16;;;-1.91;88.88
61359;BME280;47228;46.762;23.598;2022-12-08T01:04:25;97184.15;;;-1.89;88.60
61359;BME280;47228;46.762;23.598;2022-12-08T01:06:53;97184.36;;;-1.90;88.48
61359;BME280;47228;46.762;23.598;2022-12-08T01:09:21;97181.85;;;-1.94;88.09
61359;BME280;47228;46.762;23.598;2022-12-08T01:11:49;97182.13;;;-1.95;88.52
61359;BME280;47228;46.762;23.598;2022-12-08T01:14:16;97179.98;;;-1.96;88.46
61359;BME280;47228;46.762;23.598;2022-12-08T01:16:44;97185.70;;;-1.96;88.69
61359;BME280;47228;46.762;23.598;2022-12-08T01:19:13;97192.02;;;-1.97;88.53
61359;BME280;47228;46.762;23.598;2022-12-08T01:21:41;97189.59;;;-2.01;88.49
61359;BME280;47228;46.762;23.598;2022-12-08T01:24:13;97191.52;;;-2.03;88.60
61359;BME280;47228;46.762;23.598;2022-12-08T01:26:41;97191.09;;;-2.05;88.53
61359;BME280;47228;46.762;23.598;2022-12-08T01:29:10;97189.84;;;-2.06;88.51
61359;BME280;47228;46.762;23.598;2022-12-08T01:31:38;97190.38;;;-2.06;88.43
61359;BME280;47228;46.762;23.598;2022-12-08T01:34:06;97181.64;;;-2.06;88.53
61359;BME280;47228;46.762;23.598;2022-12-08T01:36:35;97178.09;;;-2.03;88.78
61359;BME280;47228;46.762;23.598;2022-12-08T01:39:04;97177.30;;;-1.99;88.73
61359;BME280;47228;46.762;23.598;2022-12-08T01:41:34;97180.02;;;-1.97;88.47
61359;BME280;47228;46.762;23.598;2022-12-08T01:46:36;97185.90;;;-1.96;87.85
61359;BME280;47228;46.762;23.598;2022-12-08T01:49:09;97187.30;;;-1.99;87.72
61359;BME280;47228;46.762;23.598;2022-12-08T01:51:41;97191.30;;;-2.03;87.38
61359;BME280;47228;46.762;23.598;2022-12-08T01:54:10;97191.40;;;-2.08;87.05
61359;BME280;47228;46.762;23.598;2022-12-08T01:56:46;97191.05;;;-2.12;87.15
61359;BME280;47228;46.762;23.598;2022-12-08T01:59:17;97199.36;;;-2.16;87.05
61359;BME280;47228;46.762;23.598;2022-12-08T02:01:45;97199.05;;;-2.24;86.98
61359;BME280;47228;46.762;23.598;2022-12-08T02:04:13;97203.64;;;-2.27;87.29
61359;BME280;47228;46.762;23.598;2022-12-08T02:06:42;97207.10;;;-2.31;86.89
61359;BME280;47228;46.762;23.598;2022-12-08T02:09:11;97202.88;;;-2.37;86.66
61359;BME280;47228;46.762;23.598;2022-12-08T02:11:39;97202.31;;;-2.42;86.71
61359;BME280;47228;46.762;23.598;2022-12-08T02:14:07;97208.02;;;-2.47;86.86
61359;BME280;47228;46.762;23.598;2022-12-08T02:16:44;97205.30;;;-2.52;86.61
61359;BME280;47228;46.762;23.598;2022-12-08T02:43:43;97202.45;;;-2.88;87.92
61359;BME280;47228;46.762;23.598;2022-12-08T02:46:16;97203.49;;;-2.88;87.94
61359;BME280;47228;46.762;23.598;2022-12-08T02:48:46;97210.61;;;-2.89;88.16
61359;BME280;47228;46.762;23.598;2022-12-08T02:51:14;97214.39;;;-2.86;88.25
61359;BME280;47228;46.762;23.598;2022-12-08T02:53:42;97217.53;;;-2.84;88.18
61359;BME280;47228;46.762;23.598;2022-12-08T02:58:45;97206.70;;;-2.90;87.72
61359;BME280;47228;46.762;23.598;2022-12-08T03:04:04;97209.48;;;-3.01;87.38
61359;BME280;47228;46.762;23.598;2022-12-08T03:06:44;97208.64;;;-3.05;87.57
61359;BME280;47228;46.762;23.598;2022-12-08T03:11:47;97203.88;;;-3.11;87.99
61359;BME280;47228;46.762;23.598;2022-12-08T03:14:18;97206.43;;;-3.13;87.97
61359;BME280;47228;46.762;23.598;2022-12-08T03:16:48;97211.60;;;-3.15;87.90
61359;BME280;47228;46.762;23.598;2022-12-08T03:19:18;97212.57;;;-3.16;87.74
61359;BME280;47228;46.762;23.598;2022-12-08T03:21:49;97204.98;;;-3.16;87.86
61359;BME280;47228;46.762;23.598;2022-12-08T03:24:18;97201.70;;;-3.14;88.16
61359;BME280;47228;46.762;23.598;2022-12-08T03:26:55;97201.88;;;-3.12;87.88
61359;BME280;47228;46.762;23.598;2022-12-08T03:29:25;97201.30;;;-3.14;87.42
61359;BME280;47228;46.762;23.598;2022-12-08T03:31:53;97201.80;;;-3.13;87.86
61359;BME280;47228;46.762;23.598;2022-12-08T03:34:23;97201.70;;;-3.10;88.31
61359;BME280;47228;46.762;23.598;2022-12-08T03:36:52;97207.14;;;-3.06;88.13
61359;BME280;47228;46.762;23.598;2022-12-08T03:39:20;97205.80;;;-3.07;87.91
61359;BME280;47228;46.762;23.598;2022-12-08T03:41:48;97200.94;;;-3.09;87.74
61359;BME280;47228;46.762;23.598;2022-12-08T03:44:15;97205.95;;;-3.11;87.48
61359;BME280;47228;46.762;23.598;2022-12-08T03:46:43;97204.75;;;-3.16;87.33
61359;BME280;47228;46.762;23.598;2022-12-08T03:49:12;97206.64;;;-3.20;87.50
61359;BME280;47228;46.762;23.598;2022-12-08T03:51:39;97207.67;;;-3.24;87.46
61359;BME280;47228;46.762;23.598;2022-12-08T03:54:07;97207.16;;;-3.27;87.73
61359;BME280;47228;46.762;23.598;2022-12-08T03:56:36;97207.43;;;-3.28;87.79
61359;BME280;47228;46.762;23.598;2022-12-08T03:59:04;97201.86;;;-3.30;87.94
61359;BME280;47228;46.762;23.598;2022-12-08T04:01:33;97205.36;;;-3.30;88.07
61359;BME280;47228;46.762;23.598;2022-12-08T04:04:00;97202.28;;;-3.29;88.02
61359;BME280;47228;46.762;23.598;2022-12-08T04:06:28;97202.80;;;-3.29;87.70
61359;BME280;47228;46.762;23.598;2022-12-08T04:08:56;97202.42;;;-3.31;87.67
61359;BME280;47228;46.762;23.598;2022-12-08T04:11:24;97206.54;;;-3.30;87.72
61359;BME280;47228;46.762;23.598;2022-12-08T04:13:52;97204.95;;;-3.30;87.92
61359;BME280;47228;46.762;23.598;2022-12-08T04:16:21;97207.23;;;-3.28;88.17
61359;BME280;47228;46.762;23.598;2022-12-08T04:18:50;97207.81;;;-3.26;88.20
61359;BME280;47228;46.762;23.598;2022-12-08T04:21:19;97208.23;;;-3.25;88.33
61359;BME280;47228;46.762;23.598;2022-12-08T04:23:47;97203.54;;;-3.25;88.45
61359;BME280;47228;46.762;23.598;2022-12-08T04:26:15;97203.79;;;-3.23;88.25
61359;BME280;47228;46.762;23.598;2022-12-08T04:28:43;97200.53;;;-3.24;88.30
61359;BME280;47228;46.762;23.598;2022-12-08T04:31:11;97199.38;;;-3.22;88.50
61359;BME280;47228;46.762;23.598;2022-12-08T04:33:39;97196.68;;;-3.21;88.60
61359;BME280;47228;46.762;23.598;2022-12-08T04:36:07;97201.66;;;-3.21;88.63
61359;BME280;47228;46.762;23.598;2022-12-08T04:38:35;97197.68;;;-3.20;88.80
61359;BME280;47228;46.762;23.598;2022-12-08T04:41:03;97193.42;;;-3.19;88.87
61359;BME280;47228;46.762;23.598;2022-12-08T04:43:31;97188.25;;;-3.17;88.94
61359;BME280;47228;46.762;23.598;2022-12-08T04:45:58;97190.77;;;-3.14;89.03
61359;BME280;47228;46.762;23.598;2022-12-08T04:48:26;97191.42;;;-3.11;88.85
61359;BME280;47228;46.762;23.598;2022-12-08T04:50:54;97194.85;;;-3.11;88.44
61359;BME280;47228;46.762;23.598;2022-12-08T04:53:22;97194.00;;;-3.11;88.40
61359;BME280;47228;46.762;23.598;2022-12-08T04:55:50;97191.97;;;-3.09;88.30
61359;BME280;47228;46.762;23.598;2022-12-08T04:58:18;97191.39;;;-3.06;88.53
61359;BME280;47228;46.762;23.598;2022-12-08T05:00:46;97188.12;;;-3.00;88.97
61359;BME280;47228;46.762;23.598;2022-12-08T05:03:14;97190.17;;;-2.93;89.13
61359;BME280;47228;46.762;23.598;2022-12-08T05:05:42;97193.16;;;-2.87;89.04
61359;BME280;47228;46.762;23.598;2022-12-08T05:08:10;97196.47;;;-2.85;88.60
61359;BME280;47228;46.762;23.598;2022-12-08T05:10:38;97201.67;;;-2.85;88.25
61359;BME280;47228;46.762;23.598;2022-12-08T05:13:06;97201.84;;;-2.85;88.56
61359;BME280;47228;46.762;23.598;2022-12-08T05:15:33;97200.09;;;-2.82;88.96
61359;BME280;47228;46.762;23.598;2022-12-08T05:18:03;97198.89;;;-2.78;88.86
61359;BME280;47228;46.762;23.598;2022-12-08T05:20:31;97204.48;;;-2.75;88.79
61359;BME280;47228;46.762;23.598;2022-12-08T05:22:59;97210.12;;;-2.71;88.63
61359;BME280;47228;46.762;23.598;2022-12-08T05:25:27;97214.31;;;-2.69;88.51
61359;BME280;47228;46.762;23.598;2022-12-08T05:27:55;97212.94;;;-2.67;88.60
61359;BME280;47228;46.762;23.598;2022-12-08T05:30:42;97216.38;;;-2.63;88.92
61359;BME280;47228;46.762;23.598;2022-12-08T05:33:10;97219.39;;;-2.57;89.14
61359;BME280;47228;46.762;23.598;2022-12-08T05:35:38;97217.76;;;-2.52;89.38
61359;BME280;47228;46.762;23.598;2022-12-08T05:38:06;97218.21;;;-2.46;89.18
61359;BME280;47228;46.762;23.598;2022-12-08T05:40:35;97219.02;;;-2.41;89.18
61359;BME280;47228;46.762;23.598;2022-12-08T05:43:03;97222.16;;;-2.39;88.78
61359;BME280;47228;46.762;23.598;2022-12-08T05:45:31;97222.29;;;-2.39;88.56
61359;BME280;47228;46.762;23.598;2022-12-08T05:48:00;97228.61;;;-2.37;88.49
61359;BME280;47228;46.762;23.598;2022-12-08T05:50:28;97227.70;;;-2.37;88.22
61359;BME280;47228;46.762;23.598;2022-12-08T05:52:56;97227.16;;;-2.37;88.12
61359;BME280;47228;46.762;23.598;2022-12-08T05:55:23;97224.98;;;-2.38;88.02
61359;BME280;47228;46.762;23.598;2022-12-08T05:57:51;97220.78;;;-2.39;87.72
61359;BME280;47228;46.762;23.598;2022-12-08T06:00:19;97221.05;;;-2.43;88.06
61359;BME280;47228;46.762;23.598;2022-12-08T06:02:47;97227.52;;;-2.43;88.29
61359;BME280;47228;46.762;23.598;2022-12-08T06:05:15;97232.02;;;-2.45;87.93
61359;BME280;47228;46.762;23.598;2022-12-08T06:07:43;97232.05;;;-2.48;88.16
61359;BME280;47228;46.762;23.598;2022-12-08T06:10:11;97230.88;;;-2.49;88.23
61359;BME280;47228;46.762;23.598;2022-12-08T06:12:39;97233.71;;;-2.47;88.18
61359;BME280;47228;46.762;23.598;2022-12-08T06:15:07;97231.45;;;-2.45;88.36
61359;BME280;47228;46.762;23.598;2022-12-08T06:17:35;97236.10;;;-2.40;88.77
61359;BME280;47228;46.762;23.598;2022-12-08T06:20:03;97239.59;;;-2.34;88.54
61359;BME280;47228;46.762;23.598;2022-12-08T06:22:31;97238.95;;;-2.30;88.44
61359;BME280;47228;46.762;23.598;2022-12-08T06:24:59;97237.50;;;-2.25;88.67
61359;BME280;47228;46.762;23.598;2022-12-08T06:27:27;97242.16;;;-2.18;88.69
61359;BME280;47228;46.762;23.598;2022-12-08T06:29:55;97238.85;;;-2.13;88.17
61359;BME280;47228;46.762;23.598;2022-12-08T06:32:22;97247.64;;;-2.11;87.96
61359;BME280;47228;46.762;23.598;2022-12-08T06:34:54;97244.50;;;-2.09;87.95
61359;BME280;47228;46.762;23.598;2022-12-08T06:37:22;97242.33;;;-2.05;88.10
61359;BME280;47228;46.762;23.598;2022-12-08T06:39:49;97241.11;;;-2.01;88.01
61359;BME280;47228;46.762;23.598;2022-12-08T06:42:18;97238.42;;;-1.96;87.92
61359;BME280;47228;46.762;23.598;2022-12-08T06:45:05;97243.60;;;-1.91;87.73
61359;BME280;47228;46.762;23.598;2022-12-08T06:47:33;97250.42;;;-1.87;87.45
61359;BME280;47228;46.762;23.598;2022-12-08T06:50:01;97250.81;;;-1.86;87.27
61359;BME280;47228;46.762;23.598;2022-12-08T06:52:30;97250.91;;;-1.85;87.23
61359;BME280;47228;46.762;23.598;2022-12-08T06:54:58;97246.94;;;-1.85;87.33
61359;BME280;47228;46.762;23.598;2022-12-08T06:57:25;97248.48;;;-1.85;87.30
61359;BME280;47228;46.762;23.598;2022-12-08T06:59:53;97246.67;;;-1.84;87.39
61359;BME280;47228;46.762;23.598;2022-12-08T07:02:21;97249.14;;;-1.82;87.24
61359;BME280;47228;46.762;23.598;2022-12-08T07:04:50;97251.96;;;-1.78;87.20
61359;BME280;47228;46.762;23.598;2022-12-08T07:07:17;97250.59;;;-1.75;87.17
61359;BME280;47228;46.762;23.598;2022-12-08T07:09:45;97260.27;;;-1.70;87.00
61359;BME280;47228;46.762;23.598;2022-12-08T07:12:13;97265.27;;;-1.67;86.84
61359;BME280;47228;46.762;23.598;2022-12-08T07:14:41;97268.98;;;-1.63;86.92
61359;BME280;47228;46.762;23.598;2022-12-08T07:17:08;97269.15;;;-1.59;86.71
61359;BME280;47228;46.762;23.598;2022-12-08T07:19:36;97261.87;;;-1.58;86.50
61359;BME280;47228;46.762;23.598;2022-12-08T07:22:04;97263.77;;;-1.55;86.44
61359;BME280;47228;46.762;23.598;2022-12-08T07:24:32;97268.59;;;-1.53;86.69
61359;BME280;47228;46.762;23.598;2022-12-08T07:27:00;97268.98;;;-1.51;86.87
61359;BME280;47228;46.762;23.598;2022-12-08T07:29:28;97269.27;;;-1.50;86.73
61359;BME280;47228;46.762;23.598;2022-12-08T07:31:55;97267.93;;;-1.47;86.78
61359;BME280;47228;46.762;23.598;2022-12-08T07:34:23;97269.54;;;-1.43;86.79
61359;BME280;47228;46.762;23.598;2022-12-08T07:36:53;97266.67;;;-1.40;86.75
61359;BME280;47228;46.762;23.598;2022-12-08T07:39:21;97266.11;;;-1.37;86.66
61359;BME280;47228;46.762;23.598;2022-12-08T07:41:49;97264.40;;;-1.34;86.72
61359;BME280;47228;46.762;23.598;2022-12-08T07:44:17;97267.23;;;-1.30;86.89
61359;BME280;47228;46.762;23.598;2022-12-08T07:46:44;97270.46;;;-1.27;86.57
61359;BME280;47228;46.762;23.598;2022-12-08T07:49:12;97266.98;;;-1.27;86.25
61359;BME280;47228;46.762;23.598;2022-12-08T07:51:40;97273.13;;;-1.28;86.42
61359;BME280;47228;46.762;23.598;2022-12-08T07:54:11;97269.20;;;-1.29;86.45
61359;BME280;47228;46.762;23.598;2022-12-08T07:56:39;97265.78;;;-1.27;86.78
61359;BME280;47228;46.762;23.598;2022-12-08T07:59:07;97271.81;;;-1.24;86.79
61359;BME280;47228;46.762;23.598;2022-12-08T08:01:34;97272.09;;;-1.22;86.59
61359;BME280;47228;46.762;23.598;2022-12-08T08:04:03;97270.98;;;-1.23;86.26
61359;BME280;47228;46.762;23.598;2022-12-08T08:06:32;97281.23;;;-1.23;86.37
61359;BME280;47228;46.762;23.598;2022-12-08T08:09:01;97276.55;;;-1.21;86.48
61359;BME280;47228;46.762;23.598;2022-12-08T08:11:29;97276.13;;;-1.18;86.29
61359;BME280;47228;46.762;23.598;2022-12-08T08:13:56;97280.23;;;-1.17;85.99
61359;BME280;47228;46.762;23.598;2022-12-08T08:16:24;97275.32;;;-1.17;86.11
61359;BME280;47228;46.762;23.598;2022-12-08T08:18:52;97281.02;;;-1.16;85.86
61359;BME280;47228;46.762;23.598;2022-12-08T08:21:20;97284.54;;;-1.17;86.12
61359;BME280;47228;46.762;23.598;2022-12-08T08:24:08;97282.27;;;-1.14;86.14
61359;BME280;47228;46.762;23.598;2022-12-08T08:26:36;97280.48;;;-1.14;85.94
61359;BME280;47228;46.762;23.598;2022-12-08T08:29:04;97279.69;;;-1.15;85.86
61359;BME280;47228;46.762;23.598;2022-12-08T08:31:32;97282.45;;;-1.17;85.61
61359;BME280;47228;46.762;23.598;2022-12-08T08:33:59;97279.13;;;-1.18;85.76
61359;BME280;47228;46.762;23.598;2022-12-08T08:36:32;97270.79;;;-1.16;86.12
61359;BME280;47228;46.762;23.598;2022-12-08T08:39:00;97272.84;;;-1.12;86.32
61359;BME280;47228;46.762;23.598;2022-12-08T08:41:28;97266.98;;;-1.08;86.13
61359;BME280;47228;46.762;23.598;2022-12-08T08:43:56;97264.92;;;-1.07;85.99
61359;BME280;47228;46.762;23.598;2022-12-08T08:46:24;97266.36;;;-1.05;85.98
61359;BME280;47228;46.762;23.598;2022-12-08T08:48:52;97264.34;;;-1.04;85.81
61359;BME280;47228;46.762;23.598;2022-12-08T08:51:20;97261.60;;;-0.98;86.16
61359;BME280;47228;46.762;23.598;2022-12-08T08:53:48;97261.48;;;-0.91;86.25
61359;BME280;47228;46.762;23.598;2022-12-08T08:56:16;97256.61;;;-0.86;85.88
61359;BME280;47228;46.762;23.598;2022-12-08T08:58:46;97250.09;;;-0.85;85.70
61359;BME280;47228;46.762;23.598;2022-12-08T09:01:16;97245.48;;;-0.84;85.62
61359;BME280;47228;46.762;23.598;2022-12-08T09:03:44;97239.73;;;-0.88;85.71
61359;BME280;47228;46.762;23.598;2022-12-08T09:06:12;97235.42;;;-0.88;86.02
61359;BME280;47228;46.762;23.598;2022-12-08T09:08:40;97230.00;;;-0.88;86.09
61359;BME280;47228;46.762;23.598;2022-12-08T09:11:08;97224.73;;;-0.86;86.35
61359;BME280;47228;46.762;23.598;2022-12-08T09:13:36;97224.52;;;-0.83;86.30
61359;BME280;47228;46.762;23.598;2022-12-08T09:16:05;97229.40;;;-0.79;86.49
61359;BME280;47228;46.762;23.598;2022-12-08T09:18:34;97227.82;;;-0.77;86.21
61359;BME280;47228;46.762;23.598;2022-12-08T09:21:03;97223.67;;;-0.75;86.08
61359;BME280;47228;46.762;23.598;2022-12-08T09:23:31;97218.56;;;-0.75;86.18
61359;BME280;47228;46.762;23.598;2022-12-08T09:26:02;97220.02;;;-0.73;86.11
61359;BME280;47228;46.762;23.598;2022-12-08T09:28:31;97222.11;;;-0.73;86.22
61359;BME280;47228;46.762;23.598;2022-12-08T09:30:59;97222.16;;;-0.76;85.68
61359;BME280;47228;46.762;23.598;2022-12-08T09:33:27;97219.66;;;-0.81;85.84
61359;BME280;47228;46.762;23.598;2022-12-08T09:35:55;97215.71;;;-0.80;86.37
61359;BME280;47228;46.762;23.598;2022-12-08T09:38:23;97214.36;;;-0.76;86.32
61359;BME280;47228;46.762;23.598;2022-12-08T09:40:51;97209.25;;;-0.72;86.66
61359;BME280;47228;46.762;23.598;2022-12-08T09:43:26;97202.23;;;-0.69;86.66
61359;BME280;47228;46.762;23.598;2022-12-08T09:46:02;97203.81;;;-0.63;86.82
61359;BME280;47228;46.762;23.598;2022-12-08T10:11:57;97192.25;;;-0.46;87.12
61359;BME280;47228;46.762;23.598;2022-12-08T10:16:59;97181.81;;;-0.30;87.49
61359;BME280;47228;46.762;23.598;2022-12-08T10:19:28;97180.35;;;-0.22;87.67
61359;BME280;47228;46.762;23.598;2022-12-08T10:21:58;97181.13;;;-0.13;87.36
61359;BME280;47228;46.762;23.598;2022-12-08T10:24:33;97180.38;;;-0.06;86.97
61359;BME280;47228;46.762;23.598;2022-12-08T10:27:03;97182.32;;;-0.01;86.64
61359;BME280;47228;46.762;23.598;2022-12-08T10:29:32;97178.08;;;0.03;86.66
61359;BME280;47228;46.762;23.598;2022-12-08T10:32:00;97169.20;;;0.05;86.47
61359;BME280;47228;46.762;23.598;2022-12-08T10:34:28;97161.20;;;0.05;86.95
61359;BME280;47228;46.762;23.598;2022-12-08T10:36:56;97156.35;;;0.09;87.25
61359;BME280;47228;46.762;23.598;2022-12-08T10:39:28;97148.85;;;0.17;87.51
61359;BME280;47228;46.762;23.598;2022-12-08T10:41:59;97140.89;;;0.28;87.70
61359;BME280;47228;46.762;23.598;2022-12-08T10:44:27;97142.42;;;0.38;87.51
61359;BME280;47228;46.762;23.598;2022-12-08T10:46:55;97147.77;;;0.44;87.02
61359;BME280;47228;46.762;23.598;2022-12-08T10:49:28;97155.04;;;0.48;86.59
61359;BME280;47228;46.762;23.598;2022-12-08T10:51:58;97148.95;;;0.52;86.72
61359;BME280;47228;46.762;23.598;2022-12-08T10:54:33;97139.89;;;0.54;86.61
61359;BME280;47228;46.762;23.598;2022-12-08T10:57:03;97140.16;;;0.54;86.51
61359;BME280;47228;46.762;23.598;2022-12-08T10:59:32;97133.91;;;0.56;86.63
61359;BME280;47228;46.762;23.598;2022-12-08T11:02:00;97127.10;;;0.58;86.83
61359;BME280;47228;46.762;23.598;2022-12-08T11:04:37;97125.66;;;0.58;86.94
61359;BME280;47228;46.762;23.598;2022-12-08T11:07:05;97126.13;;;0.63;87.42
61359;BME280;47228;46.762;23.598;2022-12-08T11:12:13;97124.11;;;0.75;87.43
61359;BME280;47228;46.762;23.598;2022-12-08T11:22:36;97112.73;;;0.92;87.26
61359;BME280;47228;46.762;23.598;2022-12-08T11:27:42;97101.05;;;0.96;87.36
61359;BME280;47228;46.762;23.598;2022-12-08T11:30:21;97096.77;;;0.99;87.48
61359;BME280;47228;46.762;23.598;2022-12-08T11:32:54;97093.10;;;1.02;87.30
61359;BME280;47228;46.762;23.598;2022-12-08T11:35:27;97096.08;;;1.06;87.23
61359;BME280;47228;46.762;23.598;2022-12-08T11:38:03;97097.36;;;1.07;87.31
61359;BME280;47228;46.762;23.598;2022-12-08T11:46:33;97080.05;;;1.13;87.64
61359;BME280;47228;46.762;23.598;2022-12-08T11:49:03;97064.58;;;1.16;87.67
61359;BME280;47228;46.762;23.598;2022-12-08T11:51:38;97062.84;;;1.20;87.45
61359;BME280;47228;46.762;23.598;2022-12-08T11:56:56;97072.10;;;1.27;87.87
61359;BME280;47228;46.762;23.598;2022-12-08T12:01:52;97063.90;;;1.32;87.81
61359;BME280;47228;46.762;23.598;2022-12-08T12:17:31;97041.54;;;1.45;88.03
61359;BME280;47228;46.762;23.598;2022-12-08T12:20:12;97038.78;;;1.48;88.03
61359;BME280;47228;46.762;23.598;2022-12-08T12:22:42;97043.58;;;1.51;88.13
61359;BME280;47228;46.762;23.598;2022-12-08T12:25:15;97046.54;;;1.53;87.91
61359;BME280;47228;46.762;23.598;2022-12-08T12:27:44;97039.95;;;1.51;87.64
61359;BME280;47228;46.762;23.598;2022-12-08T12:30:23;97042.30;;;1.48;87.67
61359;BME280;47228;46.762;23.598;2022-12-08T12:32:55;97051.90;;;1.46;87.56
61359;BME280;47228;46.762;23.598;2022-12-08T12:35:27;97053.72;;;1.46;87.71
61359;BME280;47228;46.762;23.598;2022-12-08T12:37:59;97053.67;;;1.46;88.05
61359;BME280;47228;46.762;23.598;2022-12-08T12:40:33;97057.66;;;1.48;88.08
61359;BME280;47228;46.762;23.598;2022-12-08T12:45:30;97047.77;;;1.51;88.43
61359;BME280;47228;46.762;23.598;2022-12-08T12:55:49;97025.64;;;1.63;88.63
61359;BME280;47228;46.762;23.598;2022-12-08T13:03:37;97023.96;;;1.64;88.33
61359;BME280;47228;46.762;23.598;2022-12-08T13:06:06;97028.19;;;1.64;88.50
61359;BME280;47228;46.762;23.598;2022-12-08T13:08:53;97026.79;;;1.65;88.80
61359;BME280;47228;46.762;23.598;2022-12-08T13:11:22;97023.11;;;1.64;88.44
61359;BME280;47228;46.762;23.598;2022-12-08T13:13:54;97017.50;;;1.62;88.26
61359;BME280;47228;46.762;23.598;2022-12-08T13:16:23;97011.21;;;1.61;88.47
61359;BME280;47228;46.762;23.598;2022-12-08T13:18:56;97001.47;;;1.60;88.79
61359;BME280;47228;46.762;23.598;2022-12-08T13:21:30;96991.04;;;1.63;89.00
61359;BME280;47228;46.762;23.598;2022-12-08T13:29:30;96989.05;;;1.71;89.27
61359;BME280;47228;46.762;23.598;2022-12-08T13:37:19;96970.55;;;1.78;89.12
61359;BME280;47228;46.762;23.598;2022-12-08T13:39:50;96973.86;;;1.78;89.12
61359;BME280;47228;46.762;23.598;2022-12-08T13:42:21;96982.67;;;1.79;89.31
61359;BME280;47228;46.762;23.598;2022-12-08T13:48:11;96983.25;;;1.85;89.22
61359;BME280;47228;46.762;23.598;2022-12-08T13:51:09;96985.27;;;1.84;89.14
61359;BME280;47228;46.762;23.598;2022-12-08T13:54:01;96984.70;;;1.85;89.48
61359;BME280;47228;46.762;23.598;2022-12-08T13:56:52;96976.74;;;1.86;89.43
61359;BME280;47228;46.762;23.598;2022-12-08T13:59:41;96970.65;;;1.86;89.33
61359;BME280;47228;46.762;23.598;2022-12-08T14:02:17;96970.52;;;1.84;89.18
61359;BME280;47228;46.762;23.598;2022-12-08T14:04:47;96962.48;;;1.82;89.52
61359;BME280;47228;46.762;23.598;2022-12-08T14:07:35;96959.15;;;1.82;89.32
61359;BME280;47228;46.762;23.598;2022-12-08T14:10:07;96954.53;;;1.81;89.54
61359;BME280;47228;46.762;23.598;2022-12-08T14:12:35;96957.54;;;1.83;89.70
61359;BME280;47228;46.762;23.598;2022-12-08T14:15:04;96959.55;;;1.85;89.80
61359;BME280;47228;46.762;23.598;2022-12-08T14:17:32;96956.19;;;1.89;89.73
61359;BME280;47228;46.762;23.598;2022-12-08T14:22:47;96964.27;;;1.93;89.61
61359;BME280;47228;46.762;23.598;2022-12-08T14:25:15;96964.73;;;1.96;89.94
61359;BME280;47228;46.762;23.598;2022-12-08T14:27:43;96971.85;;;2.00;90.06
61359;BME280;47228;46.762;23.598;2022-12-08T14:35:32;96976.25;;;2.10;89.64
61359;BME280;47228;46.762;23.598;2022-12-08T14:38:02;96973.33;;;2.11;89.41
61359;BME280;47228;46.762;23.598;2022-12-08T14:40:37;96967.22;;;2.13;89.39
61359;BME280;47228;46.762;23.598;2022-12-08T14:53:22;96960.42;;;2.18;89.35
61359;BME280;47228;46.762;23.598;2022-12-08T14:55:51;96956.95;;;2.17;89.43
61359;BME280;47228;46.762;23.598;2022-12-08T14:58:26;96959.05;;;2.17;89.46
61359;BME280;47228;46.762;23.598;2022-12-08T15:00:56;96956.20;;;2.18;89.36
61359;BME280;47228;46.762;23.598;2022-12-08T15:03:26;96950.73;;;2.17;89.36
61359;BME280;47228;46.762;23.598;2022-12-08T15:05:55;96947.51;;;2.14;89.04
61359;BME280;47228;46.762;23.598;2022-12-08T15:08:24;96943.36;;;2.12;89.38
61359;BME280;47228;46.762;23.598;2022-12-08T15:11:11;96937.89;;;2.11;89.56
61359;BME280;47228;46.762;23.598;2022-12-08T15:13:44;96950.45;;;2.11;89.30
61359;BME280;47228;46.762;23.598;2022-12-08T15:19:14;96952.91;;;2.14;89.44
61359;BME280;47228;46.762;23.598;2022-12-08T15:21:43;96942.86;;;2.18;89.71
61359;BME280;47228;46.762;23.598;2022-12-08T15:24:13;96939.66;;;2.23;89.82
61359;BME280;47228;46.762;23.598;2022-12-08T15:26:45;96937.67;;;2.25;89.81
61359;BME280;47228;46.762;23.598;2022-12-08T15:29:21;96937.77;;;2.26;89.44
61359;BME280;47228;46.762;23.598;2022-12-08T15:31:50;96940.98;;;2.27;89.56
61359;BME280;47228;46.762;23.598;2022-12-08T15:34:21;96947.96;;;2.28;89.70
61359;BME280;47228;46.762;23.598;2022-12-08T15:36:49;96937.67;;;2.30;89.58